Time;durP1;ratioP1;P1;durP2;ratioP2;P2;SDS_P1;SDS_P2;PMS_P1;PMS_P2;Temp;Humidity;BMP_temperature;BMP_pressure;BME280_temperature;BME280_humidity;BME280_pressure;Samples;Min_cycle;Max_cycle;Signal;HPM_P1;HPM_P2
2021/07/05 00:00:15;;;;;;;9.13;8.63;;;18.50;99.90;;;;;;4995288;28;20417;-62
2021/07/05 00:02:41;;;;;;;9.30;8.63;;;18.30;99.90;;;;;;4995240;28;20531;-62
2021/07/05 00:05:08;;;;;;;8.60;8.00;;;18.30;99.90;;;;;;4994254;28;20922;-61
2021/07/05 00:07:34;;;;;;;8.97;8.47;;;18.30;99.90;;;;;;4993434;28;20419;-63
2021/07/05 00:10:00;;;;;;;9.20;8.60;;;18.20;99.90;;;;;;4992207;28;20442;-63
2021/07/05 00:12:26;;;;;;;10.73;9.20;;;18.20;99.90;;;;;;4992913;28;20184;-62
2021/07/05 00:14:52;;;;;;;10.70;9.90;;;18.10;99.90;;;;;;5000976;28;20472;-62
2021/07/05 00:17:18;;;;;;;10.97;10.17;;;18.10;99.90;;;;;;5006597;28;20430;-62
2021/07/05 00:19:44;;;;;;;12.07;10.93;;;17.90;99.90;;;;;;4992454;28;20211;-61
2021/07/05 00:22:10;;;;;;;11.20;10.20;;;17.80;99.90;;;;;;4992316;28;20186;-61
2021/07/05 00:24:35;;;;;;;10.63;9.73;;;17.80;99.90;;;;;;4995741;28;20516;-61
2021/07/05 00:27:02;;;;;;;10.57;9.80;;;17.80;99.90;;;;;;5011464;28;20183;-62
2021/07/05 00:29:27;;;;;;;10.37;9.57;;;17.90;99.90;;;;;;5001118;28;20206;-61
2021/07/05 00:31:53;;;;;;;9.87;9.17;;;17.90;99.90;;;;;;4997947;28;20457;-61
2021/07/05 00:34:19;;;;;;;9.17;8.47;;;17.90;99.90;;;;;;5011612;28;20206;-61
2021/07/05 00:36:45;;;;;;;9.47;8.77;;;18.00;99.90;;;;;;4999261;28;20175;-61
2021/07/05 00:39:11;;;;;;;8.00;7.40;;;18.00;99.90;;;;;;4996060;28;20182;-61
2021/07/05 00:41:37;;;;;;;9.23;8.43;;;18.00;99.90;;;;;;4996855;28;20252;-61
2021/07/05 00:44:03;;;;;;;8.00;7.40;;;18.00;99.90;;;;;;5010898;28;20429;-61
2021/07/05 00:46:29;;;;;;;7.83;7.33;;;18.10;99.90;;;;;;5007669;28;20479;-61
2021/07/05 00:48:55;;;;;;;8.50;7.80;;;18.10;99.90;;;;;;4996682;28;20497;-61
2021/07/05 00:51:21;;;;;;;7.63;7.10;;;18.10;99.90;;;;;;5010485;28;20659;-61
2021/07/05 00:53:48;;;;;;;7.03;6.63;;;18.10;99.90;;;;;;5010969;28;20462;-62
2021/07/05 00:56:15;;;;;;;7.93;7.43;;;18.10;99.90;;;;;;4995802;28;20529;-61
2021/07/05 00:58:41;;;;;;;7.73;7.03;;;18.10;99.90;;;;;;4996454;28;20514;-61
2021/07/05 01:01:07;;;;;;;7.73;7.10;;;18.10;99.90;;;;;;4995529;28;20513;-62
2021/07/05 01:03:33;;;;;;;7.77;7.23;;;18.10;99.90;;;;;;4995977;28;20430;-61
2021/07/05 01:05:59;;;;;;;7.73;7.03;;;18.10;99.90;;;;;;4995454;28;20481;-64
2021/07/05 01:08:25;;;;;;;7.77;7.27;;;18.10;99.90;;;;;;4995772;28;20430;-61
2021/07/05 01:10:51;;;;;;;7.40;6.90;;;18.10;99.90;;;;;;4996387;28;20399;-61
2021/07/05 01:13:17;;;;;;;7.63;7.13;;;18.10;99.90;;;;;;4995298;28;20422;-61
2021/07/05 01:15:42;;;;;;;7.40;6.90;;;18.10;99.90;;;;;;4996026;28;20183;-61
2021/07/05 01:18:08;;;;;;;6.73;6.33;;;18.10;99.90;;;;;;4995423;28;20642;-61
2021/07/05 01:20:36;;;;;;;7.60;7.10;;;18.10;99.90;;;;;;4995617;28;20180;-61
2021/07/05 01:23:04;;;;;;;7.10;6.70;;;18.10;99.90;;;;;;4995130;28;20176;-61
2021/07/05 01:25:31;;;;;;;7.10;6.60;;;18.00;99.90;;;;;;4996021;28;20403;-61
2021/07/05 01:27:59;;;;;;;7.03;6.63;;;18.00;99.90;;;;;;4995470;28;20965;-61
2021/07/05 01:30:26;;;;;;;6.70;6.20;;;17.90;99.90;;;;;;4995164;28;20473;-61
2021/07/05 01:32:54;;;;;;;7.13;6.73;;;17.90;99.90;;;;;;4995773;28;20426;-61
2021/07/05 01:35:20;;;;;;;6.90;6.50;;;17.90;99.90;;;;;;4994405;28;20484;-61
2021/07/05 01:37:46;;;;;;;7.10;6.50;;;17.90;99.90;;;;;;4995549;28;20423;-61
2021/07/05 01:40:18;;;;;;;6.70;6.30;;;18.00;99.90;;;;;;4994639;28;20450;-61
2021/07/05 01:42:51;;;;;;;6.63;6.23;;;18.00;99.90;;;;;;4995662;28;20422;-61
2021/07/05 01:45:23;;;;;;;6.97;6.47;;;18.00;99.90;;;;;;4977589;28;20451;-61
2021/07/05 01:47:49;;;;;;;6.37;5.97;;;18.00;99.90;;;;;;4995118;28;20454;-62
2021/07/05 01:50:15;;;;;;;6.60;6.20;;;18.00;99.90;;;;;;4975124;28;20502;-61
2021/07/05 01:52:41;;;;;;;6.40;6.00;;;18.00;99.90;;;;;;4989361;28;20423;-61
2021/07/05 01:55:08;;;;;;;7.03;6.63;;;18.00;99.90;;;;;;4994331;28;21004;-61
2021/07/05 01:57:34;;;;;;;6.30;5.80;;;18.00;99.90;;;;;;4995432;28;20235;-61
2021/07/05 02:00:07;;;;;;;6.30;5.93;;;18.00;99.90;;;;;;4994860;28;20427;-63
2021/07/05 02:02:33;;;;;;;6.83;6.30;;;17.90;99.90;;;;;;4995254;28;20415;-61
2021/07/05 02:04:58;;;;;;;6.60;6.20;;;17.90;99.90;;;;;;4994981;28;20426;-61
2021/07/05 02:07:24;;;;;;;6.67;6.17;;;17.90;99.90;;;;;;4994466;28;20180;-61
2021/07/05 02:09:50;;;;;;;6.40;6.00;;;18.00;99.90;;;;;;4995088;28;20297;-61
2021/07/05 02:12:16;;;;;;;6.33;5.93;;;18.00;99.90;;;;;;4994183;28;20207;-61
2021/07/05 02:14:42;;;;;;;6.40;5.90;;;18.00;99.90;;;;;;4994760;28;20243;-61
2021/07/05 02:17:10;;;;;;;6.53;6.13;;;18.00;99.90;;;;;;4994239;28;20617;-62
2021/07/05 02:19:37;;;;;;;6.63;6.20;;;18.00;99.90;;;;;;4994909;28;20509;-61
2021/07/05 02:22:05;;;;;;;6.53;6.13;;;18.00;99.90;;;;;;4994801;28;20431;-63
2021/07/05 02:24:31;;;;;;;6.70;6.30;;;18.00;99.90;;;;;;4994720;28;20427;-61
2021/07/05 02:26:57;;;;;;;6.83;6.00;;;18.00;99.90;;;;;;4994518;28;20473;-62
2021/07/05 02:29:22;;;;;;;5.90;5.60;;;18.00;99.90;;;;;;4993623;28;20619;-61
2021/07/05 02:31:48;;;;;;;5.90;5.60;;;18.00;99.90;;;;;;4994631;28;20172;-61
2021/07/05 02:34:14;;;;;;;6.13;5.80;;;18.00;99.90;;;;;;4993454;28;20227;-61
2021/07/05 02:36:40;;;;;;;6.50;6.10;;;18.00;99.90;;;;;;4994654;28;20566;-61
2021/07/05 02:39:06;;;;;;;6.07;5.77;;;18.00;99.90;;;;;;4993637;28;20686;-63
2021/07/05 02:41:32;;;;;;;6.33;5.90;;;18.00;99.90;;;;;;4994444;28;20183;-61
2021/07/05 02:43:58;;;;;;;6.33;6.03;;;18.00;99.90;;;;;;4994604;28;20407;-61
2021/07/05 02:46:24;;;;;;;6.23;5.83;;;18.00;99.90;;;;;;4993801;28;20366;-61
2021/07/05 02:48:50;;;;;;;6.83;6.43;;;18.00;99.90;;;;;;4994208;28;20176;-61
2021/07/05 02:51:16;;;;;;;6.87;6.47;;;18.00;99.90;;;;;;4993395;28;20770;-61
2021/07/05 02:53:43;;;;;;;6.93;6.53;;;18.00;99.90;;;;;;4994116;28;20541;-61
2021/07/05 02:56:09;;;;;;;6.77;6.37;;;18.00;99.90;;;;;;4996722;28;20477;-61
2021/07/05 02:58:35;;;;;;;6.60;6.30;;;18.00;99.90;;;;;;5013395;28;20398;-62
2021/07/05 03:01:04;;;;;;;6.60;6.30;;;18.00;99.90;;;;;;5012849;28;20655;-61
2021/07/05 03:03:30;;;;;;;7.23;6.83;;;18.00;99.90;;;;;;5011045;28;20436;-61
2021/07/05 03:05:56;;;;;;;7.03;6.63;;;18.00;99.90;;;;;;5013401;28;20799;-61
2021/07/05 03:08:21;;;;;;;7.20;6.60;;;18.00;99.90;;;;;;4993375;28;20186;-61
2021/07/05 03:10:47;;;;;;;7.17;6.67;;;17.90;99.90;;;;;;4993322;28;20437;-61
2021/07/05 03:13:16;;;;;;;8.10;7.10;;;17.90;99.90;;;;;;4993153;28;20198;-61
2021/07/05 03:15:43;;;;;;;7.07;6.67;;;17.90;99.90;;;;;;5012565;28;20853;-61
2021/07/05 03:18:10;;;;;;;7.57;7.07;;;18.00;99.90;;;;;;5002644;28;20518;-61
2021/07/05 03:20:42;;;;;;;8.20;7.40;;;18.00;99.90;;;;;;4995639;28;20403;-61
2021/07/05 03:23:12;;;;;;;6.87;6.50;;;18.00;99.90;;;;;;5012811;28;20857;-63
2021/07/05 03:25:38;;;;;;;7.57;7.07;;;18.10;99.90;;;;;;5012967;28;20845;-61
2021/07/05 03:28:06;;;;;;;7.10;6.60;;;18.10;99.90;;;;;;5007075;28;20926;-61
2021/07/05 03:30:36;;;;;;;7.93;7.43;;;18.10;99.90;;;;;;4993379;28;20434;-61
2021/07/05 03:33:03;;;;;;;7.97;7.37;;;18.10;99.90;;;;;;5008235;28;20446;-61
2021/07/05 03:35:29;;;;;;;6.97;6.47;;;18.10;99.90;;;;;;5004740;28;20427;-61
2021/07/05 03:37:56;;;;;;;7.20;6.80;;;18.20;99.90;;;;;;4993546;28;20544;-61
2021/07/05 03:40:27;;;;;;;7.57;7.07;;;18.20;99.90;;;;;;5009105;28;20426;-61
2021/07/05 03:42:55;;;;;;;6.60;6.20;;;18.20;99.90;;;;;;5000023;28;20444;-61
2021/07/05 03:45:24;;;;;;;7.30;6.80;;;18.20;99.90;;;;;;4995789;28;20829;-61
2021/07/05 03:47:50;;;;;;;6.50;6.10;;;18.30;99.90;;;;;;5012996;28;20409;-61
2021/07/05 03:50:18;;;;;;;8.07;7.33;;;18.30;99.90;;;;;;4996127;28;20914;-61
2021/07/05 03:52:44;;;;;;;6.30;5.90;;;18.30;99.90;;;;;;4999536;28;20945;-61
2021/07/05 03:55:14;;;;;;;7.00;6.40;;;18.40;99.90;;;;;;5011702;28;20442;-63
2021/07/05 03:57:40;;;;;;;7.43;6.97;;;18.40;99.90;;;;;;5012494;28;20818;-61
2021/07/05 04:00:09;;;;;;;7.33;6.73;;;18.40;99.90;;;;;;4995626;28;20433;-61
2021/07/05 04:02:35;;;;;;;7.83;6.77;;;18.40;99.90;;;;;;4975324;28;20419;-61
2021/07/05 04:05:00;;;;;;;7.27;6.83;;;18.50;99.90;;;;;;4993871;28;20430;-61
2021/07/05 04:07:26;;;;;;;7.00;6.50;;;18.50;99.90;;;;;;4991751;28;20183;-61
2021/07/05 04:09:52;;;;;;;7.53;7.03;;;18.60;99.90;;;;;;5001749;28;20189;-61
2021/07/05 04:12:20;;;;;;;6.70;6.20;;;18.60;99.90;;;;;;5007331;28;20184;-61
2021/07/05 04:14:46;;;;;;;7.10;6.70;;;18.70;99.90;;;;;;4992953;28;20463;-61
2021/07/05 04:17:12;;;;;;;6.37;6.07;;;18.70;99.90;;;;;;5010797;28;20499;-62
2021/07/05 04:19:38;;;;;;;7.00;6.50;;;18.70;99.90;;;;;;5000774;28;20434;-61
2021/07/05 04:22:04;;;;;;;6.97;6.57;;;18.80;99.90;;;;;;4992978;28;20539;-61
2021/07/05 04:24:31;;;;;;;5.90;5.60;;;18.80;99.90;;;;;;4992096;28;20179;-61
2021/07/05 04:26:57;;;;;;;6.87;6.40;;;18.80;99.90;;;;;;5005898;28;20441;-61
2021/07/05 04:29:23;;;;;;;7.37;6.97;;;18.90;99.90;;;;;;5003539;28;20423;-61
2021/07/05 04:31:49;;;;;;;6.57;6.17;;;18.90;99.90;;;;;;4992589;28;20434;-61
2021/07/05 04:34:14;;;;;;;6.90;6.30;;;18.90;99.90;;;;;;4992822;28;20746;-62
2021/07/05 04:36:40;;;;;;;6.33;6.00;;;18.90;99.90;;;;;;4993384;28;20517;-61
2021/07/05 04:39:07;;;;;;;6.63;6.17;;;18.90;99.90;;;;;;4992807;28;20544;-61
2021/07/05 04:41:33;;;;;;;6.30;5.87;;;18.90;99.90;;;;;;4992098;28;20427;-61
2021/07/05 04:43:59;;;;;;;6.70;6.20;;;19.00;99.90;;;;;;5004740;28;20500;-61
2021/07/05 04:46:26;;;;;;;6.00;5.50;;;19.00;99.90;;;;;;5009686;28;20432;-61
2021/07/05 04:48:54;;;;;;;5.97;5.47;;;19.10;99.90;;;;;;5012203;28;20890;-61
2021/07/05 04:51:20;;;;;;;5.77;5.33;;;19.00;99.90;;;;;;4993377;28;20931;-62
2021/07/05 04:53:46;;;;;;;6.17;5.67;;;19.10;99.90;;;;;;5004682;28;20520;-61
2021/07/05 04:56:11;;;;;;;5.57;5.17;;;19.10;99.90;;;;;;4975109;28;20858;-63
2021/07/05 04:58:37;;;;;;;5.90;5.33;;;19.10;99.90;;;;;;4992231;28;20176;-61
2021/07/05 05:01:04;;;;;;;5.80;5.20;;;19.20;99.90;;;;;;4992438;28;20180;-61
2021/07/05 05:03:30;;;;;;;5.80;5.30;;;19.20;99.90;;;;;;4991492;28;21196;-62
2021/07/05 05:05:55;;;;;;;6.27;5.77;;;19.20;99.90;;;;;;4992271;28;20438;-61
2021/07/05 05:08:21;;;;;;;7.07;5.53;;;19.20;99.90;;;;;;4991404;28;20191;-62
2021/07/05 05:10:47;;;;;;;6.90;5.00;;;19.20;99.90;;;;;;4992139;28;20180;-61
2021/07/05 05:13:12;;;;;;;5.27;4.97;;;19.30;99.90;;;;;;4991484;28;20259;-62
2021/07/05 05:15:38;;;;;;;5.23;4.80;;;19.30;99.90;;;;;;4992143;28;20179;-60
2021/07/05 05:18:05;;;;;;;6.23;5.10;;;19.30;99.90;;;;;;4992520;28;20172;-60
2021/07/05 05:20:31;;;;;;;6.20;5.77;;;19.20;99.90;;;;;;4991338;28;20489;-61
2021/07/05 05:22:56;;;;;;;4.93;4.63;;;19.10;99.90;;;;;;4995677;28;20926;-60
2021/07/05 05:25:22;;;;;;;5.60;5.10;;;19.10;99.90;;;;;;4995724;28;20176;-61
2021/07/05 05:27:49;;;;;;;6.90;6.23;;;19.10;99.90;;;;;;4995703;28;20261;-60
2021/07/05 05:30:16;;;;;;;5.47;5.03;;;19.10;99.90;;;;;;4994612;28;20419;-62
2021/07/05 05:32:44;;;;;;;5.93;5.53;;;19.10;99.90;;;;;;4995725;28;20783;-61
2021/07/05 05:35:10;;;;;;;4.30;4.10;;;19.20;99.90;;;;;;4976321;28;20455;-60
2021/07/05 05:37:36;;;;;;;4.87;4.67;;;19.10;99.90;;;;;;4975623;28;20411;-60
2021/07/05 05:40:04;;;;;;;4.47;4.27;;;19.00;99.90;;;;;;4983966;28;20427;-60
2021/07/05 05:42:29;;;;;;;3.90;3.63;;;19.00;99.90;;;;;;4995065;28;20175;-61
2021/07/05 05:44:55;;;;;;;4.23;4.03;;;18.90;99.90;;;;;;4995681;28;20469;-60
2021/07/05 05:47:21;;;;;;;3.93;3.83;;;18.90;99.90;;;;;;4994989;28;20263;-61
2021/07/05 05:49:46;;;;;;;4.20;4.10;;;18.90;99.90;;;;;;4995490;28;20203;-60
2021/07/05 05:52:12;;;;;;;4.30;4.00;;;18.90;99.90;;;;;;4995613;28;20176;-60
2021/07/05 05:54:37;;;;;;;3.90;3.80;;;18.90;99.90;;;;;;4994488;28;20245;-60
2021/07/05 05:57:03;;;;;;;3.90;3.80;;;18.90;99.90;;;;;;4995183;28;20228;-60
2021/07/05 05:59:30;;;;;;;3.33;3.23;;;18.70;99.90;;;;;;4994549;28;20266;-60
2021/07/05 06:01:56;;;;;;;3.97;3.77;;;18.60;99.90;;;;;;4995405;28;20172;-60
2021/07/05 06:04:22;;;;;;;3.40;3.30;;;18.50;99.90;;;;;;4993299;28;20952;-61
2021/07/05 06:06:48;;;;;;;3.50;3.40;;;18.40;99.90;;;;;;4995373;28;20176;-60
2021/07/05 06:09:14;;;;;;;4.10;4.00;;;18.40;99.90;;;;;;5010307;28;20534;-62
2021/07/05 06:11:40;;;;;;;3.60;3.50;;;18.30;99.90;;;;;;4995120;28;20419;-60
2021/07/05 06:14:07;;;;;;;3.97;3.77;;;18.30;99.90;;;;;;4994295;28;20463;-61
2021/07/05 06:16:34;;;;;;;3.67;3.47;;;18.30;99.90;;;;;;4993191;28;20427;-61
2021/07/05 06:19:00;;;;;;;3.37;3.27;;;18.40;99.90;;;;;;4993019;28;20502;-61
2021/07/05 06:21:27;;;;;;;3.03;2.93;;;18.30;99.90;;;;;;4994112;28;20926;-61
2021/07/05 06:23:57;;;;;;;3.53;3.23;;;18.30;99.90;;;;;;4994147;28;20789;-61
2021/07/05 06:26:23;;;;;;;3.30;3.10;;;18.30;99.90;;;;;;4993163;28;20434;-61
2021/07/05 06:28:49;;;;;;;3.10;3.00;;;18.30;99.90;;;;;;4993603;28;20427;-61
2021/07/05 06:31:15;;;;;;;2.80;2.70;;;18.40;99.90;;;;;;4994539;28;20425;-62
2021/07/05 06:33:41;;;;;;;2.90;2.80;;;18.40;99.90;;;;;;4993484;28;20455;-61
2021/07/05 06:36:07;;;;;;;3.10;3.00;;;18.50;99.90;;;;;;4992415;28;21010;-61
2021/07/05 06:38:33;;;;;;;3.00;2.90;;;18.50;99.90;;;;;;4993693;28;20258;-62
2021/07/05 06:40:59;;;;;;;3.23;3.10;;;18.60;99.90;;;;;;4994724;28;20450;-62
2021/07/05 06:43:25;;;;;;;3.80;3.70;;;18.60;99.90;;;;;;4980524;28;20422;-61
2021/07/05 06:45:51;;;;;;;3.40;3.30;;;18.60;99.90;;;;;;4994450;28;20415;-61
2021/07/05 06:48:17;;;;;;;3.47;3.37;;;18.60;99.90;;;;;;4993883;28;20489;-62
2021/07/05 06:50:44;;;;;;;4.90;4.60;;;18.60;99.90;;;;;;4994020;28;20271;-60
2021/07/05 06:53:10;;;;;;;3.40;3.20;;;18.60;99.90;;;;;;4993851;28;20921;-60
2021/07/05 06:55:37;;;;;;;3.40;3.30;;;18.60;99.90;;;;;;4993490;28;20587;-61
2021/07/05 06:58:04;;;;;;;3.30;3.10;;;18.60;99.90;;;;;;4993754;28;20458;-61
2021/07/05 07:00:31;;;;;;;3.63;3.53;;;18.70;99.90;;;;;;4993614;28;20411;-61
2021/07/05 07:02:58;;;;;;;3.60;3.40;;;18.70;99.90;;;;;;4993743;28;20493;-61
2021/07/05 07:05:25;;;;;;;3.47;3.30;;;18.70;99.90;;;;;;4993442;28;20779;-61
2021/07/05 07:07:56;;;;;;;3.30;3.10;;;18.80;99.90;;;;;;4994226;28;20411;-61
2021/07/05 07:10:24;;;;;;;3.67;3.50;;;18.90;99.90;;;;;;4993166;28;20898;-62
2021/07/05 07:12:53;;;;;;;6.10;5.60;;;18.90;99.90;;;;;;4977105;28;20410;-62
2021/07/05 07:15:22;;;;;;;5.80;5.40;;;18.90;99.90;;;;;;4993653;28;20439;-62
2021/07/05 07:18:43;;;;;;;3.80;3.60;;;19.00;99.90;;;;;;4993668;28;20431;-62
2021/07/05 07:20:40;;;;;;;3.30;3.10;;;19.10;99.90;;;;;;4990656;28;20489;-63
2021/07/05 07:23:06;;;;;;;3.60;3.50;;;19.00;99.90;;;;;;4993720;28;20414;-63
2021/07/05 07:25:32;;;;;;;3.47;3.27;;;19.10;99.90;;;;;;4992428;28;20172;-61
2021/07/05 07:27:58;;;;;;;4.97;3.53;;;19.30;99.90;;;;;;4976152;28;20195;-61
2021/07/05 07:30:23;;;;;;;3.40;3.30;;;19.50;99.90;;;;;;4992698;28;20175;-63
2021/07/05 07:32:49;;;;;;;3.83;3.63;;;19.60;99.90;;;;;;4993418;28;20537;-63
2021/07/05 07:35:16;;;;;;;6.43;5.83;;;19.70;99.90;;;;;;4992975;28;20235;-59
2021/07/05 07:37:48;;;;;;;9.13;6.80;;;19.70;99.90;;;;;;4993022;28;20242;-60
2021/07/05 07:42:41;;;;;;;5.77;5.27;;;19.80;99.90;;;;;;4993225;28;20419;-61
2021/07/05 07:45:07;;;;;;;62.83;44.90;;;19.80;99.90;;;;;;4993437;28;20414;-61
2021/07/05 07:47:33;;;;;;;50.37;37.87;;;20.00;99.90;;;;;;4992658;28;20419;-60
2021/07/05 07:49:59;;;;;;;15.63;13.97;;;20.20;99.90;;;;;;4992821;28;20430;-61
2021/07/05 07:52:27;;;;;;;17.30;14.77;;;20.50;99.90;;;;;;4992776;28;20175;-62
2021/07/05 07:54:53;;;;;;;12.73;11.17;;;20.70;99.90;;;;;;4992395;28;20572;-61
2021/07/05 07:57:19;;;;;;;15.70;12.70;;;20.90;99.90;;;;;;4993163;28;20462;-61
2021/07/05 07:59:45;;;;;;;15.03;13.43;;;21.10;99.90;;;;;;4992278;28;20465;-66
2021/07/05 08:02:12;;;;;;;18.57;16.57;;;21.30;99.90;;;;;;4992967;28;20411;-67
2021/07/05 08:04:38;;;;;;;20.13;17.80;;;21.50;99.90;;;;;;4995583;28;20422;-61
2021/07/05 08:07:04;;;;;;;21.93;18.80;;;21.70;99.90;;;;;;4982037;28;20922;-60
2021/07/05 08:09:30;;;;;;;18.80;16.90;;;21.80;99.90;;;;;;4992453;28;20438;-61
2021/07/05 08:11:56;;;;;;;12.80;11.60;;;21.90;99.90;;;;;;4992997;28;20183;-61
2021/07/05 08:14:22;;;;;;;21.37;18.30;;;22.10;99.90;;;;;;4992678;28;20545;-63
2021/07/05 08:16:48;;;;;;;18.03;16.10;;;22.20;99.80;;;;;;4992968;28;20494;-61
2021/07/05 08:19:14;;;;;;;32.70;29.13;;;22.20;98.40;;;;;;4992954;28;20176;-61
2021/07/05 08:21:41;;;;;;;25.83;22.30;;;22.30;98.40;;;;;;4991973;28;20407;-61
2021/07/05 08:24:07;;;;;;;29.97;24.30;;;22.30;97.90;;;;;;4978019;28;20624;-61
2021/07/05 08:26:34;;;;;;;21.63;19.37;;;22.40;97.70;;;;;;4972500;28;20408;-64
2021/07/05 08:28:59;;;;;;;25.20;22.40;;;22.30;96.60;;;;;;4973290;28;20843;-64
2021/07/05 08:31:26;;;;;;;21.90;18.30;;;22.30;97.60;;;;;;4988072;28;20465;-66
2021/07/05 08:33:52;;;;;;;6.20;5.70;;;22.30;97.20;;;;;;4992041;28;20207;-64
2021/07/05 08:36:20;;;;;;;11.97;10.77;;;22.30;96.80;;;;;;4992788;28;20445;-64
2021/07/05 08:38:46;;;;;;;10.63;9.53;;;22.20;97.50;;;;;;4995301;28;21148;-64
2021/07/05 08:41:13;;;;;;;21.70;17.00;;;22.10;97.10;;;;;;4985572;28;20426;-64
2021/07/05 08:43:42;;;;;;;13.70;12.30;;;22.10;97.20;;;;;;4997348;28;20423;-62
2021/07/05 08:46:08;;;;;;;13.87;12.57;;;21.80;97.40;;;;;;4992962;28;20458;-66
2021/07/05 08:48:37;;;;;;;9.90;9.10;;;21.90;97.90;;;;;;4991964;28;20478;-65
2021/07/05 08:51:05;;;;;;;10.40;9.53;;;21.90;97.70;;;;;;4975384;28;20768;-65
2021/07/05 08:53:31;;;;;;;8.83;8.00;;;22.00;98.10;;;;;;4991538;28;20454;-63
2021/07/05 08:55:57;;;;;;;6.00;5.60;;;22.00;98.00;;;;;;4992828;28;20861;-63
2021/07/05 08:58:23;;;;;;;6.97;5.97;;;22.20;98.30;;;;;;4994019;28;20422;-64
2021/07/05 09:00:49;;;;;;;5.40;5.07;;;22.30;98.20;;;;;;4943151;28;20772;-63
2021/07/05 09:03:31;;;;;;;8.53;6.80;;;22.50;97.60;;;;;;4979492;28;20194;-64
2021/07/05 09:06:08;;;;;;;5.93;5.40;;;22.70;96.70;;;;;;4994808;28;20419;-63
2021/07/05 09:08:40;;;;;;;5.50;5.00;;;22.80;96.20;;;;;;4995275;28;20426;-64
2021/07/05 09:11:08;;;;;;;6.07;5.67;;;22.80;95.70;;;;;;4996621;28;20475;-63
2021/07/05 09:13:45;;;;;;;5.90;5.40;;;22.80;95.20;;;;;;4995295;28;20450;-64
2021/07/05 09:16:11;;;;;;;6.20;5.80;;;22.90;95.20;;;;;;4996654;28;20412;-63
2021/07/05 09:18:47;;;;;;;5.37;4.87;;;22.90;95.30;;;;;;4995301;28;20419;-63
2021/07/05 09:21:16;;;;;;;26.20;23.73;;;22.90;95.40;;;;;;4996365;28;20172;-63
2021/07/05 09:23:51;;;;;;;86.03;67.27;;;22.80;95.70;;;;;;4995276;28;20497;-63
2021/07/05 09:26:20;;;;;;;44.17;39.83;;;22.80;94.30;;;;;;4995983;28;20403;-64
2021/07/05 09:28:46;;;;;;;7.30;6.77;;;22.70;94.40;;;;;;4994566;28;20553;-64
2021/07/05 09:31:12;;;;;;;9.07;8.37;;;22.70;93.60;;;;;;4995972;28;20403;-63
2021/07/05 09:33:45;;;;;;;7.57;5.90;;;22.60;93.90;;;;;;4995091;28;20472;-63
2021/07/05 09:36:21;;;;;;;7.20;6.70;;;22.50;94.00;;;;;;4981038;28;20168;-64
2021/07/05 09:38:47;;;;;;;7.20;6.50;;;22.50;94.50;;;;;;4985003;28;20418;-64
2021/07/05 09:41:39;;;;;;;5.80;5.40;;;22.50;94.30;;;;;;4995953;28;20497;-63
2021/07/05 09:44:14;;;;;;;7.60;6.90;;;22.40;93.60;;;;;;4991956;28;20435;-63
2021/07/05 09:46:51;;;;;;;7.67;6.97;;;22.50;94.50;;;;;;4995005;28;20414;-64
2021/07/05 09:49:32;;;;;;;6.80;6.30;;;22.50;94.70;;;;;;4995668;28;20407;-64
2021/07/05 09:52:16;;;;;;;45.87;39.03;;;22.50;95.20;;;;;;4995537;28;20565;-63
2021/07/05 09:54:45;;;;;;;105.23;92.03;;;22.50;94.90;;;;;;4970380;28;20463;-64
2021/07/05 09:57:28;;;;;;;12.23;11.03;;;22.60;95.00;;;;;;4976011;28;20462;-63
2021/07/05 09:59:57;;;;;;;9.87;9.10;;;22.60;94.80;;;;;;4975371;28;20482;-62
2021/07/05 10:02:24;;;;;;;6.73;6.00;;;22.60;94.90;;;;;;4975702;28;20419;-71
2021/07/05 10:04:50;;;;;;;7.27;6.70;;;22.50;93.80;;;;;;4975138;28;20419;-63
2021/07/05 10:07:16;;;;;;;9.77;8.97;;;22.40;95.00;;;;;;4958106;28;20423;-64
2021/07/05 10:09:47;;;;;;;9.07;8.27;;;22.40;94.90;;;;;;4975203;28;20465;-63
2021/07/05 10:12:27;;;;;;;6.33;5.90;;;22.40;95.00;;;;;;4975789;28;20794;-63
2021/07/05 10:14:58;;;;;;;9.60;8.80;;;22.40;94.70;;;;;;4984877;28;20450;-63
2021/07/05 10:17:26;;;;;;;11.03;9.83;;;22.30;94.30;;;;;;4995118;28;20427;-64
2021/07/05 10:19:53;;;;;;;8.73;8.00;;;22.30;94.70;;;;;;4993678;28;20426;-62
2021/07/05 10:22:18;;;;;;;7.93;7.30;;;22.30;95.30;;;;;;4994186;28;20431;-63
2021/07/05 10:24:46;;;;;;;8.73;8.03;;;22.30;94.80;;;;;;4993628;28;20480;-63
2021/07/05 10:27:12;;;;;;;8.10;7.43;;;22.30;95.00;;;;;;4995037;28;20187;-63
2021/07/05 10:29:40;;;;;;;8.20;7.53;;;22.30;95.10;;;;;;4976691;28;20423;-63
2021/07/05 10:32:08;;;;;;;8.27;7.57;;;22.40;94.90;;;;;;4994768;28;20492;-63
2021/07/05 10:34:36;;;;;;;8.43;7.77;;;22.40;95.10;;;;;;4994428;28;20457;-63
2021/07/05 10:37:04;;;;;;;9.40;8.60;;;22.30;94.30;;;;;;4994887;28;20427;-62
2021/07/05 10:39:31;;;;;;;8.07;7.47;;;22.40;94.90;;;;;;4994146;28;20790;-63
2021/07/05 10:41:57;;;;;;;9.13;8.50;;;22.40;93.40;;;;;;4992596;28;20423;-62
2021/07/05 10:44:49;;;;;;;9.60;8.80;;;22.40;93.80;;;;;;4994345;28;20505;-63
2021/07/05 10:47:45;;;;;;;8.37;7.77;;;22.50;92.90;;;;;;4993508;28;20454;-63
2021/07/05 10:50:45;;;;;;;9.30;8.50;;;22.40;93.60;;;;;;4985651;28;20981;-63
2021/07/05 10:53:43;;;;;;;9.37;8.77;;;22.50;94.30;;;;;;4993121;28;20422;-63
2021/07/05 10:56:30;;;;;;;9.23;8.53;;;22.60;94.30;;;;;;4993355;28;20973;-63
2021/07/05 10:59:12;;;;;;;8.37;7.70;;;22.60;93.40;;;;;;4994394;28;20506;-63
2021/07/05 11:01:43;;;;;;;8.37;7.77;;;22.70;92.50;;;;;;4983133;28;20473;-63
2021/07/05 11:04:28;;;;;;;8.50;7.80;;;22.70;92.10;;;;;;4994052;28;20789;-63
2021/07/05 11:07:11;;;;;;;8.80;8.20;;;22.30;91.60;;;;;;4993646;28;20415;-63
2021/07/05 11:09:56;;;;;;;9.43;8.73;;;22.40;93.20;;;;;;4994261;28;20453;-62
2021/07/05 11:12:32;;;;;;;8.30;7.70;;;22.60;94.30;;;;;;4980078;28;20418;-62
2021/07/05 11:14:58;;;;;;;8.80;8.23;;;22.70;93.40;;;;;;4980999;28;20446;-63
2021/07/05 11:17:26;;;;;;;8.13;7.57;;;22.80;92.80;;;;;;4994436;28;20484;-62
2021/07/05 11:19:54;;;;;;;7.83;7.23;;;23.00;92.90;;;;;;4989619;28;20518;-63
2021/07/05 11:22:28;;;;;;;8.53;7.63;;;23.00;91.90;;;;;;4992597;28;20438;-63
2021/07/05 11:24:59;;;;;;;8.00;7.60;;;23.00;92.90;;;;;;4993112;28;20431;-63
2021/07/05 11:27:34;;;;;;;7.90;7.30;;;23.10;92.80;;;;;;4990108;28;20950;-62
2021/07/05 11:30:18;;;;;;;8.57;7.97;;;23.10;92.90;;;;;;4987355;28;20423;-63
2021/07/05 11:32:48;;;;;;;9.27;8.60;;;23.20;93.70;;;;;;4983194;28;20916;-64
2021/07/05 11:35:43;;;;;;;9.07;8.30;;;23.30;94.30;;;;;;4974374;28;20495;-62
2021/07/05 11:38:20;;;;;;;7.23;6.83;;;23.50;93.50;;;;;;4974382;28;20404;-63
2021/07/05 11:40:49;;;;;;;7.37;6.77;;;23.60;91.50;;;;;;4989182;28;20438;-63
2021/07/05 11:43:18;;;;;;;6.87;6.47;;;23.60;89.50;;;;;;4991922;28;20949;-64
2021/07/05 11:45:49;;;;;;;6.23;5.83;;;23.70;91.00;;;;;;4993382;28;20430;-62
2021/07/05 11:48:40;;;;;;;7.27;6.77;;;23.70;90.30;;;;;;4983070;28;20526;-63
2021/07/05 11:51:19;;;;;;;8.43;7.90;;;23.70;91.10;;;;;;4991774;28;20414;-63
2021/07/05 11:53:59;;;;;;;8.27;7.77;;;23.60;91.50;;;;;;4981481;28;20455;-63
2021/07/05 11:56:29;;;;;;;6.87;6.27;;;23.60;89.90;;;;;;4974259;28;20454;-64
2021/07/05 11:58:55;;;;;;;6.63;6.23;;;23.60;90.00;;;;;;4972223;28;20407;-64
2021/07/05 12:01:21;;;;;;;7.40;6.90;;;23.60;90.40;;;;;;4974276;28;20416;-64
2021/07/05 12:03:57;;;;;;;7.10;6.50;;;23.50;86.80;;;;;;4989897;28;20517;-64
2021/07/05 12:06:23;;;;;;;6.67;6.27;;;23.40;90.00;;;;;;4992481;28;20198;-63
2021/07/05 12:08:57;;;;;;;6.73;6.20;;;23.30;89.50;;;;;;4993787;28;20788;-64
2021/07/05 12:11:45;;;;;;;6.70;6.20;;;23.40;90.10;;;;;;4992795;28;20510;-63
2021/07/05 12:14:16;;;;;;;6.17;5.57;;;23.40;88.40;;;;;;4983687;28;20454;-63
2021/07/05 12:16:45;;;;;;;6.60;6.10;;;23.40;90.30;;;;;;4975372;28;20411;-64
2021/07/05 12:19:13;;;;;;;5.70;5.40;;;23.40;90.10;;;;;;4993369;28;20415;-64
2021/07/05 12:21:53;;;;;;;6.23;5.73;;;23.50;90.30;;;;;;4995179;28;20502;-64
2021/07/05 12:24:20;;;;;;;5.90;5.50;;;23.40;89.00;;;;;;4992578;28;20485;-62
2021/07/05 12:26:59;;;;;;;7.50;7.00;;;23.30;85.70;;;;;;4992066;28;20874;-65
2021/07/05 12:29:36;;;;;;;6.40;5.87;;;23.40;89.00;;;;;;4990415;28;20422;-64
2021/07/05 12:32:09;;;;;;;5.93;5.20;;;23.50;90.80;;;;;;5002699;28;20419;-61
2021/07/05 12:34:34;;;;;;;5.90;5.50;;;23.50;87.60;;;;;;4993241;28;20477;-63
2021/07/05 12:37:00;;;;;;;5.90;5.60;;;23.50;88.60;;;;;;4992240;28;20431;-62
2021/07/05 12:39:26;;;;;;;6.20;5.80;;;23.50;87.70;;;;;;4992056;28;20262;-63
2021/07/05 12:41:51;;;;;;;5.50;5.20;;;23.30;90.20;;;;;;4993190;28;20179;-64
2021/07/05 12:44:18;;;;;;;5.53;5.23;;;23.30;87.70;;;;;;4995063;28;20186;-64
2021/07/05 12:46:44;;;;;;;4.50;4.30;;;23.30;86.00;;;;;;4991429;28;20176;-65
2021/07/05 12:49:10;;;;;;;4.10;3.90;;;23.30;83.90;;;;;;4992413;28;20434;-64
2021/07/05 12:51:36;;;;;;;4.60;4.40;;;23.20;82.80;;;;;;4992215;28;20613;-65
2021/07/05 12:54:19;;;;;;;3.57;3.43;;;23.10;81.20;;;;;;4990650;28;20512;-64